Time;durP1;ratioP1;P1;durP2;ratioP2;P2;SDS_P1;SDS_P2;PMS_P1;PMS_P2;Temp;Humidity;BMP_temperature;BMP_pressure;BME280_temperature;BME280_humidity;BME280_pressure;Samples;Min_cycle;Max_cycle;Signal;HPM_P1;HPM_P2
2021/06/10 00:01:56;;;;;;;3.63;3.53;;;;;;;;;;5008733;28;20038;-53
2021/06/10 00:04:23;;;;;;;3.28;3.05;;;;;;;;;;5009993;28;20752;-55
2021/06/10 00:06:49;;;;;;;4.53;4.35;;;;;;;;;;5009393;28;20104;-55
2021/06/10 00:09:16;;;;;;;4.60;4.50;;;;;;;;;;5002474;28;20046;-54
2021/06/10 00:11:43;;;;;;;4.60;4.50;;;;;;;;;;5005316;28;20108;-53
2021/06/10 00:14:09;;;;;;;5.40;5.20;;;;;;;;;;5003881;28;20048;-53
2021/06/10 00:16:36;;;;;;;4.22;4.13;;;;;;;;;;5011300;28;20046;-55
2021/06/10 00:19:03;;;;;;;3.65;3.55;;;;;;;;;;5008114;28;20714;-55
2021/06/10 00:21:30;;;;;;;5.28;4.78;;;;;;;;;;5008629;28;20076;-55
2021/06/10 00:23:56;;;;;;;4.03;3.92;;;;;;;;;;5012029;28;20050;-54
2021/06/10 00:26:23;;;;;;;4.93;4.32;;;;;;;;;;5008978;28;20050;-55
2021/06/10 00:28:50;;;;;;;3.90;3.80;;;;;;;;;;4996967;28;20089;-54
2021/06/10 00:31:17;;;;;;;4.90;4.80;;;;;;;;;;5010262;28;20045;-55
2021/06/10 00:33:43;;;;;;;4.15;3.92;;;;;;;;;;5008452;28;20129;-54
2021/06/10 00:36:10;;;;;;;4.85;4.65;;;;;;;;;;5012152;28;20107;-55
2021/06/10 00:38:37;;;;;;;4.47;4.38;;;;;;;;;;5008820;28;20041;-54
2021/06/10 00:41:04;;;;;;;4.53;4.15;;;;;;;;;;4999972;28;20046;-54
2021/06/10 00:43:30;;;;;;;4.93;4.72;;;;;;;;;;5011270;28;20038;-55
2021/06/10 00:45:57;;;;;;;4.47;4.38;;;;;;;;;;5007981;28;20053;-55
2021/06/10 00:48:24;;;;;;;5.30;5.18;;;;;;;;;;5012239;28;20891;-54
2021/06/10 00:50:51;;;;;;;4.03;3.92;;;;;;;;;;5010220;28;20099;-55
2021/06/10 00:53:21;;;;;;;4.35;4.25;;;;;;;;;;5008578;28;20038;-55
2021/06/10 00:55:50;;;;;;;4.75;4.55;;;;;;;;;;5010661;28;20434;-54
2021/06/10 00:58:16;;;;;;;4.10;4.00;;;;;;;;;;5008776;28;20034;-54
2021/06/10 01:00:43;;;;;;;5.10;4.90;;;;;;;;;;5009812;28;20521;-55
2021/06/10 01:03:10;;;;;;;6.47;3.88;;;;;;;;;;5009809;28;20092;-54
2021/06/10 01:05:37;;;;;;;4.38;4.18;;;;;;;;;;5008602;28;20105;-55
2021/06/10 01:08:07;;;;;;;4.82;4.55;;;;;;;;;;5011147;28;20046;-53
2021/06/10 01:10:52;;;;;;;4.07;3.88;;;;;;;;;;5007726;28;20072;-55
2021/06/10 01:13:30;;;;;;;3.80;3.70;;;;;;;;;;5003621;28;20037;-55
2021/06/10 01:15:58;;;;;;;3.38;3.17;;;;;;;;;;5009821;28;20100;-54
2021/06/10 01:18:26;;;;;;;6.07;3.30;;;;;;;;;;5008104;28;20053;-55
2021/06/10 01:20:54;;;;;;;4.53;4.32;;;;;;;;;;5010291;28;20053;-53
2021/06/10 01:23:39;;;;;;;4.20;3.90;;;;;;;;;;5005865;28;20103;-52
2021/06/10 01:26:19;;;;;;;4.30;4.10;;;;;;;;;;5009800;28;20064;-54
2021/06/10 01:28:46;;;;;;;3.65;3.45;;;;;;;;;;5009623;28;20042;-55
2021/06/10 01:31:14;;;;;;;4.72;4.05;;;;;;;;;;5008356;28;20049;-55
2021/06/10 01:33:43;;;;;;;4.55;4.28;;;;;;;;;;5007947;28;20088;-55
2021/06/10 01:36:15;;;;;;;4.78;4.57;;;;;;;;;;5010220;28;20046;-54
2021/06/10 01:38:46;;;;;;;4.93;4.70;;;;;;;;;;5008207;28;20069;-55
2021/06/10 01:41:14;;;;;;;4.78;4.57;;;;;;;;;;5010512;28;20116;-55
2021/06/10 01:43:41;;;;;;;5.40;5.13;;;;;;;;;;5007670;28;20041;-55
2021/06/10 01:46:11;;;;;;;6.72;5.28;;;;;;;;;;5006584;28;20502;-55
2021/06/10 01:48:44;;;;;;;5.28;5.18;;;;;;;;;;5008837;28;20038;-55
2021/06/10 01:51:11;;;;;;;;;;;;;;;;;;5007884;28;20038;-54
2021/06/10 01:53:40;;;;;;;5.80;5.60;;;;;;;;;;5008520;28;19991;-55
2021/06/10 01:56:07;;;;;;;5.38;5.07;;;;;;;;;;5010349;28;20038;-55
2021/06/10 01:58:35;;;;;;;4.18;4.07;;;;;;;;;;4997801;28;20425;-55
2021/06/10 02:01:03;;;;;;;4.32;4.22;;;;;;;;;;5010750;28;20042;-55
2021/06/10 02:03:30;;;;;;;5.38;5.28;;;;;;;;;;5007665;28;20045;-55
2021/06/10 02:05:58;;;;;;;4.55;4.35;;;;;;;;;;5011934;28;20046;-54
2021/06/10 02:08:25;;;;;;;4.55;4.45;;;;;;;;;;5012699;28;20414;-55
2021/06/10 02:10:53;;;;;;;4.57;4.47;;;;;;;;;;5011177;28;20041;-56
2021/06/10 02:13:21;;;;;;;5.25;4.95;;;;;;;;;;5012765;28;20034;-55
2021/06/10 02:15:48;;;;;;;5.45;5.05;;;;;;;;;;5014223;28;20045;-55
2021/06/10 02:18:17;;;;;;;4.18;3.97;;;;;;;;;;5023391;28;20042;-55
2021/06/10 02:20:44;;;;;;;5.13;5.03;;;;;;;;;;5022772;28;20096;-55
2021/06/10 02:23:11;;;;;;;5.30;5.07;;;;;;;;;;5013042;28;20402;-56
2021/06/10 02:25:38;;;;;;;6.25;5.90;;;;;;;;;;5013361;28;20042;-56
2021/06/10 02:28:06;;;;;;;4.30;3.92;;;;;;;;;;5011574;28;20112;-56
2021/06/10 02:30:34;;;;;;;5.63;5.38;;;;;;;;;;5001056;28;20469;-56
2021/06/10 02:33:01;;;;;;;4.30;4.20;;;;;;;;;;5013306;28;20065;-55
2021/06/10 02:35:28;;;;;;;4.60;4.50;;;;;;;;;;5012076;28;20029;-55
2021/06/10 02:37:58;;;;;;;4.53;4.40;;;;;;;;;;5012093;28;20049;-55
2021/06/10 02:40:26;;;;;;;3.83;3.70;;;;;;;;;;5012366;28;20556;-54
2021/06/10 02:42:57;;;;;;;4.30;4.15;;;;;;;;;;5011680;28;20510;-56
2021/06/10 02:45:24;;;;;;;4.82;4.53;;;;;;;;;;5012573;28;20073;-55
2021/06/10 02:47:51;;;;;;;6.50;5.93;;;;;;;;;;5010798;28;20034;-55
2021/06/10 02:50:20;;;;;;;5.68;4.07;;;;;;;;;;5010545;28;20050;-55
2021/06/10 02:52:48;;;;;;;4.68;4.47;;;;;;;;;;5012409;28;20057;-55
2021/06/10 02:55:15;;;;;;;5.05;4.95;;;;;;;;;;5010978;28;20045;-54
2021/06/10 02:57:42;;;;;;;4.40;4.20;;;;;;;;;;5012543;28;20038;-55
2021/06/10 03:00:11;;;;;;;4.82;4.53;;;;;;;;;;5008981;28;20034;-55
2021/06/10 03:02:38;;;;;;;4.78;4.68;;;;;;;;;;5009882;28;20038;-55
2021/06/10 03:05:05;;;;;;;4.90;4.20;;;;;;;;;;5013480;28;20042;-55
2021/06/10 03:07:35;;;;;;;4.78;4.60;;;;;;;;;;5010633;28;20041;-55
2021/06/10 03:10:03;;;;;;;5.00;4.63;;;;;;;;;;5012072;28;20367;-55
2021/06/10 03:12:30;;;;;;;4.93;4.82;;;;;;;;;;5011155;28;20042;-55
2021/06/10 03:14:57;;;;;;;5.40;5.20;;;;;;;;;;5001424;28;20038;-56
2021/06/10 03:17:24;;;;;;;4.88;4.57;;;;;;;;;;5011142;28;20092;-56
2021/06/10 03:19:51;;;;;;;4.65;4.25;;;;;;;;;;5009515;28;20037;-55
2021/06/10 03:22:18;;;;;;;4.35;4.25;;;;;;;;;;5001478;28;20049;-56
2021/06/10 03:24:45;;;;;;;4.70;4.35;;;;;;;;;;5011912;28;20049;-55
2021/06/10 03:27:12;;;;;;;4.75;4.65;;;;;;;;;;5010058;28;20533;-56
2021/06/10 03:29:40;;;;;;;4.72;4.53;;;;;;;;;;5012411;28;20422;-55
2021/06/10 03:32:07;;;;;;;5.15;4.90;;;;;;;;;;5009099;28;20034;-55
2021/06/10 03:34:35;;;;;;;5.05;4.75;;;;;;;;;;5009953;28;20041;-55
2021/06/10 03:37:02;;;;;;;4.72;4.43;;;;;;;;;;5012534;28;20038;-55
2021/06/10 03:39:29;;;;;;;5.57;5.20;;;;;;;;;;5006927;28;20353;-54
2021/06/10 03:41:58;;;;;;;8.18;5.05;;;;;;;;;;5022996;28;20073;-55
2021/06/10 03:44:31;;;;;;;5.20;5.10;;;;;;;;;;5008650;28;20067;-56
2021/06/10 03:46:57;;;;;;;6.03;5.72;;;;;;;;;;4996555;28;20038;-55
2021/06/10 03:49:24;;;;;;;6.18;5.68;;;;;;;;;;5012578;28;20104;-54
2021/06/10 03:51:52;;;;;;;6.63;6.15;;;;;;;;;;5007197;28;20076;-55
2021/06/10 03:54:19;;;;;;;5.55;5.45;;;;;;;;;;5026477;28;20040;-56
2021/06/10 03:56:46;;;;;;;6.20;5.90;;;;;;;;;;5013785;28;20068;-55
2021/06/10 03:59:13;;;;;;;5.32;5.10;;;;;;;;;;5015037;28;20049;-56
2021/06/10 04:01:40;;;;;;;6.55;6.07;;;;;;;;;;5011414;28;20049;-55
2021/06/10 04:04:07;;;;;;;5.90;5.43;;;;;;;;;;5009167;28;20073;-56
2021/06/10 04:06:37;;;;;;;5.38;5.18;;;;;;;;;;5011041;28;20084;-56
2021/06/10 04:09:05;;;;;;;6.07;5.43;;;;;;;;;;5010686;28;20120;-54
2021/06/10 04:11:32;;;;;;;7.57;5.75;;;;;;;;;;5008503;28;20038;-55
2021/06/10 04:13:59;;;;;;;5.40;5.10;;;;;;;;;;5012393;28;20042;-55
2021/06/10 04:16:26;;;;;;;5.68;5.47;;;;;;;;;;5009632;28;20060;-55
2021/06/10 04:18:53;;;;;;;6.20;5.88;;;;;;;;;;5009263;28;20046;-54
2021/06/10 04:21:20;;;;;;;5.80;5.43;;;;;;;;;;5009927;28;20391;-56
2021/06/10 04:23:48;;;;;;;6.10;5.50;;;;;;;;;;5008657;28;20049;-55
2021/06/10 04:26:15;;;;;;;4.80;4.35;;;;;;;;;;5010969;28;20360;-55
2021/06/10 04:28:44;;;;;;;5.97;5.72;;;;;;;;;;5007046;28;20710;-56
2021/06/10 04:31:18;;;;;;;4.32;4.22;;;;;;;;;;5012589;28;20096;-55
2021/06/10 04:33:45;;;;;;;5.25;5.15;;;;;;;;;;5026224;28;20494;-54
2021/06/10 04:36:13;;;;;;;4.82;4.72;;;;;;;;;;5009505;28;20589;-55
2021/06/10 04:38:40;;;;;;;4.53;4.18;;;;;;;;;;5008786;28;20673;-56
2021/06/10 04:41:08;;;;;;;5.25;5.05;;;;;;;;;;5008287;28;20046;-55
2021/06/10 04:43:35;;;;;;;6.32;6.13;;;;;;;;;;4992551;28;20417;-55
2021/06/10 04:46:02;;;;;;;5.53;5.40;;;;;;;;;;5008817;28;20069;-54
2021/06/10 04:48:31;;;;;;;4.75;4.53;;;;;;;;;;5005120;28;20084;-55
2021/06/10 04:50:57;;;;;;;4.82;4.72;;;;;;;;;;4994271;28;20043;-54
2021/06/10 04:53:25;;;;;;;4.60;4.50;;;;;;;;;;4992047;28;20046;-55
2021/06/10 04:55:52;;;;;;;3.75;3.65;;;;;;;;;;4990730;28;20044;-54
2021/06/10 04:58:19;;;;;;;5.78;5.47;;;;;;;;;;5008217;28;20042;-54
2021/06/10 05:00:46;;;;;;;4.65;4.50;;;;;;;;;;5004118;28;20069;-55
2021/06/10 05:03:16;;;;;;;4.47;4.22;;;;;;;;;;5008169;28;20046;-55
2021/06/10 05:05:43;;;;;;;5.45;5.03;;;;;;;;;;5010669;28;20056;-55
2021/06/10 05:08:09;;;;;;;5.07;4.93;;;;;;;;;;5008892;28;20041;-55
2021/06/10 05:10:36;;;;;;;4.95;4.85;;;;;;;;;;5010582;28;20069;-55
2021/06/10 05:13:03;;;;;;;4.60;4.50;;;;;;;;;;5008487;28;20042;-55
2021/06/10 05:15:30;;;;;;;8.70;4.97;;;;;;;;;;5000577;28;20474;-54
2021/06/10 05:17:57;;;;;;;5.10;5.00;;;;;;;;;;5010328;28;20049;-55
2021/06/10 05:20:25;;;;;;;5.18;4.88;;;;;;;;;;5007488;28;20156;-55
2021/06/10 05:22:51;;;;;;;5.30;5.03;;;;;;;;;;5010013;28;20041;-57
2021/06/10 05:25:18;;;;;;;5.13;4.90;;;;;;;;;;5007527;28;20065;-55
2021/06/10 05:27:47;;;;;;;4.32;4.13;;;;;;;;;;5008508;28;20044;-56
2021/06/10 05:30:15;;;;;;;4.30;4.15;;;;;;;;;;5017165;28;20398;-55
2021/06/10 05:32:42;;;;;;;3.97;3.70;;;;;;;;;;5008202;28;20088;-55
2021/06/10 05:35:08;;;;;;;6.50;4.32;;;;;;;;;;5008747;28;20532;-55
2021/06/10 05:37:35;;;;;;;4.15;3.97;;;;;;;;;;5008010;28;20049;-55
2021/06/10 05:40:02;;;;;;;4.15;3.78;;;;;;;;;;5007308;28;20111;-56
2021/06/10 05:42:29;;;;;;;4.07;3.85;;;;;;;;;;5004986;28;20045;-55
2021/06/10 05:44:56;;;;;;;4.65;4.20;;;;;;;;;;5003968;28;20084;-54
2021/06/10 05:47:23;;;;;;;4.22;4.13;;;;;;;;;;5008247;28;20041;-54
2021/06/10 05:49:50;;;;;;;5.03;4.82;;;;;;;;;;4995990;28;20030;-55
2021/06/10 05:52:17;;;;;;;4.22;4.03;;;;;;;;;;4994565;28;20104;-53
2021/06/10 05:54:44;;;;;;;3.85;3.75;;;;;;;;;;5010687;28;20486;-54
2021/06/10 05:57:11;;;;;;;5.00;4.72;;;;;;;;;;5007419;28;20034;-55
2021/06/10 05:59:38;;;;;;;3.72;3.53;;;;;;;;;;5002163;28;20039;-55
2021/06/10 06:02:05;;;;;;;5.30;4.75;;;;;;;;;;5009373;28;20038;-54
2021/06/10 06:04:32;;;;;;;3.58;3.35;;;;;;;;;;5006562;28;20445;-54
2021/06/10 06:06:58;;;;;;;6.10;3.92;;;;;;;;;;5008403;28;20518;-53
2021/06/10 06:09:25;;;;;;;4.07;3.88;;;;;;;;;;5007008;28;20030;-53
2021/06/10 06:11:54;;;;;;;3.38;3.10;;;;;;;;;;5007005;28;20046;-54
2021/06/10 06:14:26;;;;;;;3.90;3.60;;;;;;;;;;5010069;28;20449;-53
2021/06/10 06:16:53;;;;;;;3.25;2.95;;;;;;;;;;5007050;28;20100;-54
2021/06/10 06:19:21;;;;;;;2.65;2.65;;;;;;;;;;5001038;28;20095;-54
2021/06/10 06:21:47;;;;;;;2.97;2.88;;;;;;;;;;5006887;28;20108;-55
2021/06/10 06:24:14;;;;;;;2.50;2.33;;;;;;;;;;5006647;28;20046;-53
2021/06/10 06:26:42;;;;;;;2.13;2.13;;;;;;;;;;5010390;28;20375;-53
2021/06/10 06:29:10;;;;;;;2.35;2.00;;;;;;;;;;5007674;28;20049;-54
2021/06/10 06:31:37;;;;;;;2.75;2.47;;;;;;;;;;5008457;28;20096;-52
2021/06/10 06:34:04;;;;;;;2.33;2.25;;;;;;;;;;5007459;28;20038;-55
2021/06/10 06:36:31;;;;;;;3.72;3.00;;;;;;;;;;5006879;28;20050;-54
2021/06/10 06:39:01;;;;;;;3.38;2.72;;;;;;;;;;5009592;28;20064;-53
2021/06/10 06:41:28;;;;;;;2.40;2.40;;;;;;;;;;5007691;28;20105;-55
2021/06/10 06:43:55;;;;;;;3.20;2.40;;;;;;;;;;5008604;28;20104;-55
2021/06/10 06:46:22;;;;;;;2.75;2.58;;;;;;;;;;5007942;28;20034;-52
2021/06/10 06:48:49;;;;;;;2.17;2.08;;;;;;;;;;4999822;28;20068;-56
2021/06/10 06:51:15;;;;;;;3.28;2.90;;;;;;;;;;5010572;28;20038;-55
2021/06/10 06:53:42;;;;;;;2.53;2.33;;;;;;;;;;5009580;28;20038;-55
2021/06/10 06:56:19;;;;;;;5.15;2.53;;;;;;;;;;5011131;28;20034;-54
2021/06/10 06:58:46;;;;;;;2.08;2.03;;;;;;;;;;5013609;28;20041;-54
2021/06/10 07:01:13;;;;;;;3.15;2.95;;;;;;;;;;5009822;28;20045;-53
2021/06/10 07:03:39;;;;;;;2.30;2.17;;;;;;;;;;5013861;28;20099;-55
2021/06/10 07:06:06;;;;;;;4.05;2.70;;;;;;;;;;5008944;28;20050;-55
2021/06/10 07:08:33;;;;;;;3.15;2.65;;;;;;;;;;5010416;28;20043;-54
2021/06/10 07:11:02;;;;;;;8.23;3.60;;;;;;;;;;5013323;28;20084;-55
2021/06/10 07:13:29;;;;;;;2.60;2.50;;;;;;;;;;5010748;28;20060;-55
2021/06/10 07:15:56;;;;;;;2.35;2.13;;;;;;;;;;5012579;28;20042;-55
2021/06/10 07:18:23;;;;;;;3.20;2.58;;;;;;;;;;5010591;28;20577;-54
2021/06/10 07:20:50;;;;;;;4.20;1.92;;;;;;;;;;5010372;28;20048;-55
2021/06/10 07:23:17;;;;;;;2.50;2.40;;;;;;;;;;5012502;28;20038;-55
2021/06/10 07:25:44;;;;;;;3.20;1.40;;;;;;;;;;5008643;28;20088;-54
2021/06/10 07:28:10;;;;;;;2.55;1.92;;;;;;;;;;5012112;28;20046;-53
2021/06/10 07:30:37;;;;;;;2.03;1.67;;;;;;;;;;5010470;28;20076;-55
2021/06/10 07:33:04;;;;;;;1.52;1.50;;;;;;;;;;5009568;28;20072;-54
2021/06/10 07:35:33;;;;;;;5.97;1.70;;;;;;;;;;5014502;28;20047;-54
2021/06/10 07:38:02;;;;;;;2.20;2.10;;;;;;;;;;5010051;28;20121;-54
2021/06/10 07:40:29;;;;;;;5.25;1.30;;;;;;;;;;5010625;28;20115;-55
2021/06/10 07:42:56;;;;;;;4.78;1.33;;;;;;;;;;5012053;28;20038;-53
2021/06/10 07:45:25;;;;;;;1.90;1.55;;;;;;;;;;5009056;28;20065;-54
2021/06/10 07:47:52;;;;;;;1.85;1.75;;;;;;;;;;5018932;28;20033;-55
2021/06/10 07:50:20;;;;;;;1.13;1.13;;;;;;;;;;5009713;28;20037;-54
2021/06/10 07:52:47;;;;;;;2.65;1.23;;;;;;;;;;5008490;28;20081;-53
2021/06/10 07:55:14;;;;;;;3.67;1.30;;;;;;;;;;5012127;28;20038;-54
2021/06/10 07:57:41;;;;;;;1.65;1.55;;;;;;;;;;5009709;28;20074;-53
2021/06/10 08:00:08;;;;;;;1.30;1.20;;;;;;;;;;5012661;28;20120;-55
2021/06/10 08:02:40;;;;;;;2.75;1.20;;;;;;;;;;5009941;28;20038;-54
2021/06/10 08:05:08;;;;;;;1.23;1.13;;;;;;;;;;5009122;28;20038;-54
2021/06/10 08:07:35;;;;;;;1.75;1.30;;;;;;;;;;5011837;28;20050;-54
2021/06/10 08:10:02;;;;;;;4.50;1.40;;;;;;;;;;5007223;28;20049;-55
2021/06/10 08:12:29;;;;;;;1.00;1.00;;;;;;;;;;5011506;28;20656;-55
2021/06/10 08:14:57;;;;;;;2.38;0.90;;;;;;;;;;5009402;28;20398;-54
2021/06/10 08:17:24;;;;;;;0.93;0.93;;;;;;;;;;5009906;28;20053;-54
2021/06/10 08:19:51;;;;;;;2.00;1.30;;;;;;;;;;5009861;28;20046;-55
2021/06/10 08:22:17;;;;;;;1.88;1.77;;;;;;;;;;5008199;28;20500;-55
2021/06/10 08:24:44;;;;;;;1.00;1.00;;;;;;;;;;5010699;28;20049;-55
2021/06/10 08:27:11;;;;;;;1.00;1.00;;;;;;;;;;5009914;28;20072;-55
2021/06/10 08:29:38;;;;;;;67.00;36.55;;;;;;;;;;5008326;28;20474;-54
2021/06/10 08:32:05;;;;;;;50.03;29.55;;;;;;;;;;5011065;28;20065;-54
2021/06/10 08:34:32;;;;;;;24.83;18.13;;;;;;;;;;5008857;28;20038;-55
2021/06/10 08:37:00;;;;;;;38.38;34.33;;;;;;;;;;5009001;28;20108;-54
2021/06/10 08:39:28;;;;;;;1.92;1.83;;;;;;;;;;5017647;28;20382;-54
2021/06/10 08:41:55;;;;;;;2.50;2.38;;;;;;;;;;5009140;28;20038;-55
2021/06/10 08:44:23;;;;;;;1.33;1.13;;;;;;;;;;5010953;28;20042;-55
2021/06/10 08:46:50;;;;;;;4.43;4.00;;;;;;;;;;5008499;28;20100;-55
2021/06/10 08:49:18;;;;;;;1.63;1.52;;;;;;;;;;5008486;28;20038;-55
2021/06/10 08:51:45;;;;;;;6.30;3.63;;;;;;;;;;5010326;28;20395;-55
2021/06/10 08:54:12;;;;;;;3.72;1.02;;;;;;;;;;5009845;28;20092;-55
2021/06/10 08:56:41;;;;;;;0.90;0.90;;;;;;;;;;5010793;28;20088;-55
2021/06/10 08:59:09;;;;;;;1.27;1.27;;;;;;;;;;5008363;28;20045;-54
2021/06/10 09:01:36;;;;;;;2.65;1.20;;;;;;;;;;5006834;28;20092;-55
2021/06/10 09:04:04;;;;;;;2.05;1.40;;;;;;;;;;5006853;28;20052;-55
2021/06/10 09:06:50;;;;;;;2.65;1.20;;;;;;;;;;5003141;28;20120;-56
2021/06/10 09:09:48;;;;;;;3.25;1.48;;;;;;;;;;4991794;28;20458;-54
2021/06/10 09:12:16;;;;;;;3.97;1.42;;;;;;;;;;4933557;29;20138;-55
2021/06/10 09:14:54;;;;;;;1.55;1.42;;;;;;;;;;4935109;29;20039;-54
2021/06/10 09:17:27;;;;;;;2.20;1.35;;;;;;;;;;4948820;29;20066;-55
2021/06/10 09:19:54;;;;;;;1.40;1.30;;;;;;;;;;4942341;29;20130;-54
2021/06/10 09:22:38;;;;;;;3.47;1.85;;;;;;;;;;4942532;29;20064;-55
2021/06/10 09:25:09;;;;;;;1.15;1.15;;;;;;;;;;4932462;29;20043;-55
2021/06/10 09:27:55;;;;;;;1.35;1.20;;;;;;;;;;4934862;29;20054;-54
2021/06/10 09:30:33;;;;;;;1.73;1.20;;;;;;;;;;4935732;29;20596;-54
2021/06/10 09:33:01;;;;;;;2.50;1.70;;;;;;;;;;4947411;29;20047;-53
2021/06/10 09:35:33;;;;;;;1.50;1.40;;;;;;;;;;4940549;29;20081;-55
2021/06/10 09:38:06;;;;;;;2.05;1.95;;;;;;;;;;4934893;29;20066;-54
2021/06/10 09:40:33;;;;;;;2.45;1.92;;;;;;;;;;4943741;29;20055;-55
2021/06/10 09:43:00;;;;;;;1.90;1.80;;;;;;;;;;4924956;29;20063;-55
2021/06/10 09:45:29;;;;;;;1.65;1.55;;;;;;;;;;4948902;29;20051;-54
2021/06/10 09:47:59;;;;;;;2.55;1.38;;;;;;;;;;4948025;28;20052;-53
2021/06/10 09:50:41;;;;;;;1.30;1.30;;;;;;;;;;5005831;28;20099;-56
2021/06/10 09:53:09;;;;;;;1.42;1.40;;;;;;;;;;5011031;28;20038;-54
2021/06/10 09:55:44;;;;;;;2.05;1.45;;;;;;;;;;5007220;28;20375;-55
2021/06/10 09:58:13;;;;;;;1.70;1.58;;;;;;;;;;5007433;28;20053;-55
2021/06/10 10:00:49;;;;;;;3.42;3.28;;;;;;;;;;5010801;28;20045;-55
2021/06/10 10:03:32;;;;;;;2.00;1.38;;;;;;;;;;5007634;28;20038;-54
2021/06/10 10:06:05;;;;;;;6.82;2.17;;;;;;;;;;5007048;28;20092;-56
2021/06/10 10:08:33;;;;;;;4.90;1.80;;;;;;;;;;5006180;28;20045;-55
2021/06/10 10:11:03;;;;;;;1.88;1.70;;;;;;;;;;5005085;28;20042;-54
2021/06/10 10:13:30;;;;;;;1.40;1.30;;;;;;;;;;5007270;28;20092;-54
2021/06/10 10:15:58;;;;;;;1.50;1.38;;;;;;;;;;5008365;28;20490;-55
2021/06/10 10:18:25;;;;;;;2.85;1.20;;;;;;;;;;5007027;28;20054;-54
2021/06/10 10:20:52;;;;;;;1.42;1.33;;;;;;;;;;5010763;28;20092;-56
2021/06/10 10:23:19;;;;;;;1.60;1.27;;;;;;;;;;5008399;28;20045;-55
2021/06/10 10:25:45;;;;;;;1.50;1.40;;;;;;;;;;5011405;28;20045;-55
2021/06/10 10:28:13;;;;;;;1.90;1.13;;;;;;;;;;5010061;28;20038;-55
2021/06/10 10:30:44;;;;;;;1.70;1.15;;;;;;;;;;5011859;28;20561;-55
2021/06/10 10:33:15;;;;;;;1.15;1.10;;;;;;;;;;5008791;28;20054;-55
2021/06/10 10:35:51;;;;;;;1.15;1.15;;;;;;;;;;5004190;28;20489;-56
2021/06/10 10:38:21;;;;;;;1.77;1.13;;;;;;;;;;5013131;28;20490;-54
2021/06/10 10:40:52;;;;;;;1.20;1.20;;;;;;;;;;5010665;28;20470;-54
2021/06/10 10:43:19;;;;;;;3.70;1.48;;;;;;;;;;5012149;28;20122;-54
2021/06/10 10:45:50;;;;;;;5.60;1.60;;;;;;;;;;5017757;28;20474;-55
2021/06/10 10:48:30;;;;;;;1.20;1.20;;;;;;;;;;5008080;28;20034;-55
2021/06/10 10:50:57;;;;;;;3.20;1.38;;;;;;;;;;5011811;28;20041;-55
2021/06/10 10:53:26;;;;;;;2.10;1.83;;;;;;;;;;5012822;28;20072;-55
2021/06/10 10:56:06;;;;;;;1.42;1.30;;;;;;;;;;5012223;28;20379;-54
2021/06/10 10:58:33;;;;;;;3.30;1.13;;;;;;;;;;5012562;28;20053;-54
2021/06/10 11:01:01;;;;;;;1.63;1.48;;;;;;;;;;5010870;28;20100;-55
2021/06/10 11:03:40;;;;;;;1.08;1.08;;;;;;;;;;5010109;28;20069;-55
2021/06/10 11:06:25;;;;;;;0.98;0.90;;;;;;;;;;5013266;28;20132;-55
2021/06/10 11:08:58;;;;;;;1.15;1.00;;;;;;;;;;5010502;28;20072;-54
2021/06/10 11:11:43;;;;;;;2.28;1.00;;;;;;;;;;5014985;28;20042;-55
2021/06/10 11:14:30;;;;;;;0.90;0.90;;;;;;;;;;5013385;28;20538;-55
2021/06/10 11:17:18;;;;;;;1.08;1.00;;;;;;;;;;5009504;28;20038;-55
2021/06/10 11:19:49;;;;;;;2.17;0.90;;;;;;;;;;5008997;28;20049;-55
2021/06/10 11:22:36;;;;;;;1.08;0.90;;;;;;;;;;5013371;28;20050;-55
2021/06/10 11:25:04;;;;;;;3.22;1.00;;;;;;;;;;5009154;28;20050;-55
2021/06/10 11:27:42;;;;;;;1.10;1.00;;;;;;;;;;5008760;28;20101;-54
2021/06/10 11:30:16;;;;;;;2.22;1.17;;;;;;;;;;5012878;28;20042;-54
2021/06/10 11:33:01;;;;;;;0.80;0.80;;;;;;;;;;5008886;28;20103;-54
2021/06/10 11:35:28;;;;;;;0.90;0.90;;;;;;;;;;5005019;28;20046;-56
2021/06/10 11:37:56;;;;;;;1.20;1.10;;;;;;;;;;5020073;28;20074;-55
2021/06/10 11:40:25;;;;;;;1.65;0.90;;;;;;;;;;5017599;28;20121;-56
2021/06/10 11:42:52;;;;;;;1.58;0.73;;;;;;;;;;5012564;28;20054;-55
2021/06/10 11:45:20;;;;;;;2.25;0.80;;;;;;;;;;5012631;28;20041;-55
2021/06/10 11:47:49;;;;;;;0.80;0.80;;;;;;;;;;5015211;28;20034;-54
2021/06/10 11:50:26;;;;;;;1.35;0.90;;;;;;;;;;5006409;28;20045;-55
2021/06/10 11:52:56;;;;;;;1.92;0.90;;;;;;;;;;5010385;28;20037;-53
2021/06/10 11:55:23;;;;;;;2.20;0.95;;;;;;;;;;5010536;28;20038;-55
2021/06/10 11:58:00;;;;;;;0.80;0.80;;;;;;;;;;5011856;28;20547;-53
2021/06/10 12:00:28;;;;;;;1.10;0.90;;;;;;;;;;5009495;28;20045;-54
2021/06/10 12:02:59;;;;;;;0.80;0.80;;;;;;;;;;5011836;28;20457;-54
2021/06/10 12:05:26;;;;;;;2.25;1.00;;;;;;;;;;5009431;28;20049;-53
2021/06/10 12:08:11;;;;;;;2.47;0.90;;;;;;;;;;5010695;28;20054;-54
2021/06/10 12:10:38;;;;;;;0.90;0.90;;;;;;;;;;5009950;28;20042;-55
2021/06/10 12:13:05;;;;;;;2.28;1.30;;;;;;;;;;5010425;28;20374;-54
2021/06/10 12:15:34;;;;;;;0.88;0.88;;;;;;;;;;4996964;28;20042;-54
2021/06/10 12:18:08;;;;;;;0.90;0.90;;;;;;;;;;5003288;28;20050;-54
2021/06/10 12:20:52;;;;;;;6.00;0.80;;;;;;;;;;5006169;28;20042;-55
2021/06/10 12:23:25;;;;;;;0.70;0.70;;;;;;;;;;5000221;28;20121;-52
2021/06/10 12:25:59;;;;;;;3.17;0.65;;;;;;;;;;5010486;28;20045;-54
2021/06/10 12:28:38;;;;;;;0.88;0.68;;;;;;;;;;5008303;28;20046;-54
2021/06/10 12:31:08;;;;;;;0.70;0.70;;;;;;;;;;5010721;28;20041;-54
2021/06/10 12:33:36;;;;;;;1.15;0.65;;;;;;;;;;5008519;28;20042;-55
2021/06/10 12:36:05;;;;;;;2.80;0.90;;;;;;;;;;5009509;28;20482;-55
2021/06/10 12:38:36;;;;;;;0.70;0.70;;;;;;;;;;5009793;28;20478;-54
2021/06/10 12:41:17;;;;;;;0.70;0.70;;;;;;;;;;5008875;28;20045;-54
2021/06/10 12:43:44;;;;;;;0.70;0.70;;;;;;;;;;5009362;28;20406;-55
2021/06/10 12:46:11;;;;;;;2.25;0.70;;;;;;;;;;5011122;28;20042;-54
2021/06/10 12:49:00;;;;;;;0.80;0.80;;;;;;;;;;5007762;28;20488;-55
2021/06/10 12:51:28;;;;;;;1.70;0.70;;;;;;;;;;5009471;28;20096;-54
2021/06/10 12:53:59;;;;;;;0.80;0.80;;;;;;;;;;5008691;28;20045;-54
2021/06/10 12:56:36;;;;;;;1.48;0.95;;;;;;;;;;5008268;28;20096;-54
2021/06/10 12:59:04;;;;;;;1.13;0.85;;;;;;;;;;5011533;28;20430;-53
2021/06/10 13:01:31;;;;;;;0.90;0.90;;;;;;;;;;5008389;28;20088;-53
2021/06/10 13:03:58;;;;;;;0.90;0.90;;;;;;;;;;5009206;28;20080;-54
2021/06/10 13:06:25;;;;;;;3.00;1.75;;;;;;;;;;5010188;28;20045;-51
2021/06/10 13:08:52;;;;;;;4.78;1.00;;;;;;;;;;5007791;28;20053;-54
2021/06/10 13:11:20;;;;;;;2.38;1.00;;;;;;;;;;5010198;28;20048;-53
2021/06/10 13:13:47;;;;;;;0.82;0.82;;;;;;;;;;5006674;28;20042;-53
2021/06/10 13:16:15;;;;;;;0.90;0.90;;;;;;;;;;5006084;28;20069;-54
2021/06/10 13:18:43;;;;;;;0.93;0.90;;;;;;;;;;5010575;28;20049;-54
2021/06/10 13:21:13;;;;;;;2.75;1.10;;;;;;;;;;5008288;28;20042;-55
2021/06/10 13:23:49;;;;;;;0.77;0.73;;;;;;;;;;5010308;28;20038;-54
2021/06/10 13:26:36;;;;;;;0.90;0.90;;;;;;;;;;5007649;28;20038;-52
2021/06/10 13:29:08;;;;;;;2.58;0.90;;;;;;;;;;4998561;28;20088;-54
2021/06/10 13:31:38;;;;;;;0.88;0.80;;;;;;;;;;5011241;28;20060;-55
2021/06/10 13:34:06;;;;;;;0.80;0.80;;;;;;;;;;5008251;28;20057;-55
2021/06/10 13:39:23;;;;;;;2.00;0.90;;;;;;;;;;5009670;28;20076;-53
2021/06/10 13:41:51;;;;;;;2.00;0.98;;;;;;;;;;5007091;28;20092;-52
2021/06/10 13:44:18;;;;;;;2.00;0.90;;;;;;;;;;5009077;28;20042;-53
2021/06/10 13:46:44;;;;;;;2.05;1.00;;;;;;;;;;5010186;28;20049;-53
2021/06/10 13:49:11;;;;;;;1.15;1.00;;;;;;;;;;5007134;28;20091;-52
2021/06/10 13:51:38;;;;;;;1.20;1.10;;;;;;;;;;5010660;28;20112;-52
2021/06/10 13:54:05;;;;;;;1.38;1.10;;;;;;;;;;5007910;28;20045;-53
2021/06/10 13:56:34;;;;;;;1.00;0.90;;;;;;;;;;5007446;28;20050;-52
2021/06/10 13:59:01;;;;;;;1.30;1.20;;;;;;;;;;5010092;28;20038;-50
2021/06/10 14:01:28;;;;;;;1.20;1.10;;;;;;;;;;5010455;28;20099;-56
2021/06/10 14:03:54;;;;;;;2.75;1.30;;;;;;;;;;5016997;28;20426;-53
2021/06/10 14:06:21;;;;;;;1.30;1.20;;;;;;;;;;5012855;28;20356;-52
2021/06/10 14:08:48;;;;;;;1.17;1.10;;;;;;;;;;4998504;28;20046;-52
2021/06/10 14:11:15;;;;;;;1.75;1.20;;;;;;;;;;5011823;28;20042;-54
2021/06/10 14:13:45;;;;;;;1.15;0.90;;;;;;;;;;5011806;28;20502;-55
2021/06/10 14:16:17;;;;;;;1.27;1.17;;;;;;;;;;5013778;28;20046;-53
2021/06/10 14:18:48;;;;;;;1.30;1.20;;;;;;;;;;5010115;28;20409;-55
2021/06/10 14:21:17;;;;;;;7.45;1.50;;;;;;;;;;5011871;28;20056;-52
2021/06/10 14:23:44;;;;;;;1.45;1.35;;;;;;;;;;5013599;28;20056;-52
2021/06/10 14:26:11;;;;;;;3.17;1.10;;;;;;;;;;5009536;28;20042;-54
2021/06/10 14:28:40;;;;;;;5.63;1.48;;;;;;;;;;5010915;28;20073;-54
2021/06/10 14:33:53;;;;;;;1.70;1.60;;;;;;;;;;5019151;28;20048;-52
2021/06/10 14:36:20;;;;;;;2.22;1.08;;;;;;;;;;5013397;28;20038;-52
2021/06/10 14:38:46;;;;;;;1.00;1.00;;;;;;;;;;5011274;28;20058;-49
2021/06/10 14:41:13;;;;;;;3.08;1.10;;;;;;;;;;5010405;28;20096;-53
2021/06/10 14:43:40;;;;;;;1.70;1.60;;;;;;;;;;5014060;28;20364;-50
2021/06/10 14:46:07;;;;;;;2.40;2.30;;;;;;;;;;5011450;28;20445;-52
2021/06/10 14:48:37;;;;;;;3.25;2.60;;;;;;;;;;5013180;28;20030;-51
2021/06/10 14:51:06;;;;;;;1.80;1.70;;;;;;;;;;5011434;28;20483;-54
2021/06/10 14:53:32;;;;;;;2.35;1.38;;;;;;;;;;5002219;28;20048;-51
2021/06/10 14:55:59;;;;;;;3.80;2.17;;;;;;;;;;5002471;28;20050;-54
2021/06/10 14:58:26;;;;;;;2.45;2.28;;;;;;;;;;5006330;28;20037;-54
2021/06/10 15:00:53;;;;;;;1.85;1.75;;;;;;;;;;4995334;28;20547;-52